Time,TemperatureF,DewpointF,PressureIn,WindDirection,WindDirectionDegrees,WindSpeedMPH,WindSpeedGustMPH,Humidity,HourlyPrecipIn,Conditions,Clouds,dailyrainin,SoftwareType,DateUTC
2013-08-08 00:00:00,73.0,66.1,29.89,NNW,341,0.0,4.0,79,0.00,,---,0.00,VWS V14.01,2013-08-08 05:00:00,
2013-08-08 00:01:00,73.0,66.1,29.89,NNW,341,0.0,0.0,79,0.00,,---,0.00,VWS V14.01,2013-08-08 05:01:00,
2013-08-08 00:06:00,73.2,66.3,29.89,NNW,343,1.0,3.0,79,0.00,,---,0.00,VWS V14.01,2013-08-08 05:06:00,
2013-08-08 00:11:00,73.3,66.4,29.89,NNW,343,0.0,3.0,79,0.00,,---,0.00,VWS V14.01,2013-08-08 05:11:00,
2013-08-08 00:16:00,73.3,66.4,29.89,NNW,343,0.0,3.0,79,0.00,,---,0.00,VWS V14.01,2013-08-08 05:16:00,
2013-08-08 00:21:00,73.2,66.3,29.89,NNW,343,0.0,3.0,79,0.00,,---,0.00,VWS V14.01,2013-08-08 05:21:00,
2013-08-08 00:26:00,73.2,66.3,29.89,North,11,0.0,3.0,79,0.00,,---,0.00,VWS V14.01,2013-08-08 05:26:00,
2013-08-08 00:30:00,73.2,66.3,29.89,North,10,2.0,4.0,79,0.00,,---,0.00,VWS V14.01,2013-08-08 05:30:00,
2013-08-08 00:31:00,73.2,66.3,29.89,North,10,0.0,2.0,79,0.00,,---,0.00,VWS V14.01,2013-08-08 05:31:00,
2013-08-08 00:36:00,73.3,66.4,29.89,North,11,0.0,3.0,79,0.00,,---,0.00,VWS V14.01,2013-08-08 05:36:00,
2013-08-08 00:41:00,73.3,66.4,29.89,North,11,2.0,3.0,79,0.00,,---,0.00,VWS V14.01,2013-08-08 05:41:00,
2013-08-08 00:46:00,73.5,66.6,29.89,NNE,16,1.0,4.0,79,0.00,,---,0.00,VWS V14.01,2013-08-08 05:46:00,
2013-08-08 00:51:00,73.5,66.2,29.89,NNE,28,0.0,5.0,78,0.00,,---,0.00,VWS V14.01,2013-08-08 05:51:00,
2013-08-08 00:56:00,73.5,66.2,29.89,NNE,28,1.0,5.0,78,0.00,,---,0.00,VWS V14.01,2013-08-08 05:56:00,
2013-08-08 01:00:00,73.5,66.2,29.89,NNE,29,2.0,5.0,78,0.00,,---,0.00,VWS V14.01,2013-08-08 06:00:00,
2013-08-08 01:01:00,73.5,66.2,29.89,NNE,29,1.0,2.0,78,0.00,,---,0.00,VWS V14.01,2013-08-08 06:01:00,
2013-08-08 01:06:00,73.5,66.2,29.89,NNE,28,2.0,3.0,78,0.00,,---,0.00,VWS V14.01,2013-08-08 06:06:00,
2013-08-08 01:11:00,73.3,66.0,29.89,NNE,29,2.0,3.0,78,0.00,,---,0.00,VWS V14.01,2013-08-08 06:11:00,
2013-08-08 01:16:00,73.3,66.0,29.89,NE,38,1.0,5.0,78,0.00,,---,0.00,VWS V14.01,2013-08-08 06:16:00,
2013-08-08 01:21:00,73.3,66.0,29.89,NE,38,2.0,5.0,78,0.00,,---,0.00,VWS V14.01,2013-08-08 06:21:00,
2013-08-08 01:26:00,73.3,66.0,29.89,North,5,2.0,5.0,78,0.00,,---,0.00,VWS V14.01,2013-08-08 06:26:00,
2013-08-08 01:30:00,73.2,65.9,29.89,North,5,3.0,5.0,78,0.00,,---,0.00,VWS V14.01,2013-08-08 06:30:00,
2013-08-08 01:31:00,73.2,65.9,29.89,North,5,2.0,3.0,78,0.00,,---,0.00,VWS V14.01,2013-08-08 06:31:00,
2013-08-08 01:36:00,73.2,65.9,29.89,NE,45,1.0,5.0,78,0.00,,---,0.00,VWS V14.01,2013-08-08 06:36:00,
2013-08-08 01:41:00,73.2,65.9,29.89,NNE,22,4.0,5.0,78,0.00,,---,0.00,VWS V14.01,2013-08-08 06:41:00,
2013-08-08 01:46:00,73.0,65.7,29.89,NE,46,1.0,5.0,78,0.00,,---,0.00,VWS V14.01,2013-08-08 06:46:00,
2013-08-08 01:51:00,73.0,65.7,29.89,NE,37,1.0,5.0,78,0.00,,---,0.00,VWS V14.01,2013-08-08 06:51:00,
2013-08-08 01:56:00,72.8,65.6,29.89,NE,36,4.0,5.0,78,0.00,,---,0.00,VWS V14.01,2013-08-08 06:56:00,
2013-08-08 02:00:00,72.8,65.6,29.87,NE,36,2.0,6.0,78,0.00,,---,0.00,VWS V14.01,2013-08-08 07:00:00,
2013-08-08 02:01:00,72.8,65.6,29.87,NE,34,1.0,2.0,78,0.00,,---,0.00,VWS V14.01,2013-08-08 07:01:00,
2013-08-08 02:06:00,72.8,65.6,29.87,NE,46,3.0,3.0,78,0.00,,---,0.00,VWS V14.01,2013-08-08 07:06:00,
2013-08-08 02:11:00,72.7,65.4,29.87,NNW,333,5.0,5.0,78,0.00,,---,0.00,VWS V14.01,2013-08-08 07:11:00,
2013-08-08 02:16:00,72.7,65.4,29.87,NNE,31,4.0,7.0,78,0.00,,---,0.00,VWS V14.01,2013-08-08 07:16:00,
2013-08-08 02:21:00,72.5,65.3,29.87,NNE,15,2.0,8.0,78,0.00,,---,0.00,VWS V14.01,2013-08-08 07:21:00,
2013-08-08 02:26:00,72.5,65.3,29.87,NNE,28,1.0,8.0,78,0.00,,---,0.00,VWS V14.01,2013-08-08 07:26:00,
2013-08-08 02:30:00,72.3,65.1,29.87,NNE,25,2.0,8.0,78,0.00,,---,0.00,VWS V14.01,2013-08-08 07:30:00,
2013-08-08 02:31:00,72.3,65.1,29.87,NNE,25,2.0,3.0,78,0.00,,---,0.00,VWS V14.01,2013-08-08 07:31:00,
2013-08-08 02:36:00,72.3,65.1,29.87,NNE,17,2.0,10.0,78,0.00,,---,0.00,VWS V14.01,2013-08-08 07:36:00,
2013-08-08 02:41:00,72.1,64.9,29.87,NNE,22,3.0,10.0,78,0.00,,---,0.00,VWS V14.01,2013-08-08 07:41:00,
2013-08-08 02:46:00,72.1,65.2,29.87,NE,51,1.0,10.0,79,0.00,,---,0.00,VWS V14.01,2013-08-08 07:46:00,
2013-08-08 02:51:00,72.0,65.1,29.87,NE,40,3.0,10.0,79,0.00,,---,0.00,VWS V14.01,2013-08-08 07:51:00,
2013-08-08 02:56:00,72.0,65.1,29.87,NE,56,0.0,10.0,79,0.00,,---,0.00,VWS V14.01,2013-08-08 07:56:00,
2013-08-08 03:00:00,71.8,64.9,29.86,East,86,0.0,10.0,79,0.00,,---,0.00,VWS V14.01,2013-08-08 08:00:00,
2013-08-08 03:01:00,71.8,64.9,29.86,ENE,73,2.0,3.0,79,0.00,,---,0.00,VWS V14.01,2013-08-08 08:01:00,
2013-08-08 03:06:00,71.8,64.9,29.86,ENE,65,2.0,4.0,79,0.00,,---,0.00,VWS V14.01,2013-08-08 08:06:00,
2013-08-08 03:11:00,71.8,65.3,29.86,NNE,29,2.0,5.0,80,0.00,,---,0.00,VWS V14.01,2013-08-08 08:11:00,
2013-08-08 03:16:00,71.6,65.1,29.85,NNE,30,4.0,6.0,80,0.00,,---,0.00,VWS V14.01,2013-08-08 08:16:00,
2013-08-08 03:21:00,71.6,65.1,29.85,NNE,32,3.0,8.0,80,0.00,,---,0.00,VWS V14.01,2013-08-08 08:21:00,
2013-08-08 03:26:00,71.6,65.1,29.85,NE,51,2.0,8.0,80,0.00,,---,0.00,VWS V14.01,2013-08-08 08:26:00,
2013-08-08 03:30:00,71.5,65.0,29.86,NNE,24,3.0,8.0,80,0.00,,---,0.00,VWS V14.01,2013-08-08 08:30:00,
2013-08-08 03:31:00,71.5,65.0,29.86,NNE,17,3.0,6.0,80,0.00,,---,0.00,VWS V14.01,2013-08-08 08:31:00,
2013-08-08 03:36:00,71.5,65.0,29.86,East,97,6.0,6.0,80,0.00,,---,0.00,VWS V14.01,2013-08-08 08:36:00,
2013-08-08 03:41:00,71.3,65.2,29.86,NNE,26,3.0,7.0,81,0.00,,---,0.00,VWS V14.01,2013-08-08 08:41:00,
2013-08-08 03:46:00,71.1,65.0,29.85,East,92,3.0,8.0,81,0.00,,---,0.00,VWS V14.01,2013-08-08 08:46:00,
2013-08-08 03:51:00,70.9,64.8,29.85,NE,34,3.0,8.0,81,0.00,,---,0.00,VWS V14.01,2013-08-08 08:51:00,
2013-08-08 03:56:00,70.9,64.8,29.85,NNE,26,2.0,8.0,81,0.00,,---,0.00,VWS V14.01,2013-08-08 08:56:00,
2013-08-08 04:00:00,70.8,65.0,29.86,NNW,333,3.0,8.0,82,0.00,,---,0.00,VWS V14.01,2013-08-08 09:00:00,
2013-08-08 04:01:00,70.8,65.0,29.86,NNE,18,2.0,7.0,82,0.00,,---,0.00,VWS V14.01,2013-08-08 09:01:00,
2013-08-08 04:06:00,70.8,65.0,29.86,NE,35,0.0,7.0,82,0.00,,---,0.00,VWS V14.01,2013-08-08 09:06:00,
2013-08-08 04:11:00,70.6,64.8,29.86,East,82,2.0,9.0,82,0.00,,---,0.00,VWS V14.01,2013-08-08 09:11:00,
2013-08-08 04:16:00,70.6,64.8,29.87,ESE,105,3.0,9.0,82,0.00,,---,0.00,VWS V14.01,2013-08-08 09:16:00,
2013-08-08 04:21:00,70.4,64.7,29.87,NNE,30,1.0,9.0,82,0.00,,---,0.00,VWS V14.01,2013-08-08 09:21:00,
2013-08-08 04:26:00,70.3,64.9,29.87,ESE,118,3.0,9.0,83,0.00,,---,0.00,VWS V14.01,2013-08-08 09:26:00,
2013-08-08 04:30:00,70.3,64.9,29.87,NNE,33,1.0,9.0,83,0.00,,---,0.00,VWS V14.01,2013-08-08 09:30:00,
2013-08-08 04:31:00,70.3,64.9,29.87,NNE,29,3.0,3.0,83,0.00,,---,0.00,VWS V14.01,2013-08-08 09:31:00,
2013-08-08 04:36:00,70.1,64.7,29.87,NNE,16,2.0,4.0,83,0.00,,---,0.00,VWS V14.01,2013-08-08 09:36:00,
2013-08-08 04:41:00,70.1,64.7,29.87,North,360,3.0,5.0,83,0.00,,---,0.00,VWS V14.01,2013-08-08 09:41:00,
2013-08-08 04:46:00,69.9,64.5,29.87,NNE,31,3.0,5.0,83,0.00,,---,0.00,VWS V14.01,2013-08-08 09:46:00,
2013-08-08 04:51:00,69.9,64.8,29.87,NE,41,2.0,7.0,84,0.00,,---,0.00,VWS V14.01,2013-08-08 09:51:00,
2013-08-08 04:56:00,69.8,64.8,29.87,North,5,3.0,7.0,84,0.00,,---,0.00,VWS V14.01,2013-08-08 09:56:00,
2013-08-08 05:00:00,69.6,64.6,29.86,NNE,32,2.0,7.0,84,0.00,,---,0.00,VWS V14.01,2013-08-08 10:00:00,
2013-08-08 05:01:00,69.6,64.6,29.86,NE,37,3.0,5.0,84,0.00,,---,0.00,VWS V14.01,2013-08-08 10:01:00,
2013-08-08 05:06:00,69.6,64.6,29.86,NNE,17,4.0,7.0,84,0.00,,---,0.00,VWS V14.01,2013-08-08 10:06:00,
2013-08-08 05:11:00,69.6,64.6,29.86,North,360,3.0,7.0,84,0.00,,---,0.00,VWS V14.01,2013-08-08 10:11:00,
2013-08-08 05:16:00,69.6,64.6,29.85,NE,42,4.0,8.0,84,0.00,,---,0.00,VWS V14.01,2013-08-08 10:16:00,
2013-08-08 05:21:00,69.4,64.7,29.85,NE,55,3.0,8.0,85,0.00,,---,0.00,VWS V14.01,2013-08-08 10:21:00,
2013-08-08 05:26:00,69.4,64.7,29.85,NNE,24,2.0,8.0,85,0.00,,---,0.00,VWS V14.01,2013-08-08 10:26:00,
2013-08-08 05:30:00,69.4,64.7,29.87,ESE,105,2.0,8.0,85,0.00,,---,0.00,VWS V14.01,2013-08-08 10:30:00,
2013-08-08 05:31:00,69.4,64.7,29.87,ESE,104,2.0,2.0,85,0.00,,---,0.00,VWS V14.01,2013-08-08 10:31:00,
2013-08-08 05:36:00,69.3,64.6,29.87,ENE,69,3.0,6.0,85,0.00,,---,0.00,VWS V14.01,2013-08-08 10:36:00,
2013-08-08 05:41:00,69.3,64.6,29.87,NNE,24,0.0,6.0,85,0.00,,---,0.00,VWS V14.01,2013-08-08 10:41:00,
2013-08-08 05:46:00,69.1,64.4,29.87,NNE,20,1.0,6.0,85,0.00,,---,0.00,VWS V14.01,2013-08-08 10:46:00,
2013-08-08 05:51:00,69.1,64.7,29.87,ENE,73,0.0,6.0,86,0.00,,---,0.00,VWS V14.01,2013-08-08 10:51:00,
2013-08-08 05:56:00,68.9,64.6,29.87,ESE,106,1.0,6.0,86,0.00,,---,0.00,VWS V14.01,2013-08-08 10:56:00,
2013-08-08 06:00:00,68.9,64.5,29.88,ENE,78,1.0,6.0,86,0.00,,---,0.00,VWS V14.01,2013-08-08 11:00:00,
2013-08-08 06:01:00,68.9,64.6,29.88,ENE,78,0.0,1.0,86,0.00,,---,0.00,VWS V14.01,2013-08-08 11:01:00,
2013-08-08 06:06:00,68.9,64.6,29.88,ENE,76,0.0,3.0,86,0.00,,---,0.00,VWS V14.01,2013-08-08 11:06:00,
2013-08-08 06:11:00,68.9,64.6,29.88,ESE,104,1.0,3.0,86,0.00,,---,0.00,VWS V14.01,2013-08-08 11:11:00,
2013-08-08 06:16:00,68.8,64.8,29.91,ESE,104,1.0,3.0,87,0.00,,---,0.00,VWS V14.01,2013-08-08 11:16:00,
2013-08-08 06:21:00,68.9,64.9,29.91,ESE,105,0.0,3.0,87,0.00,,---,0.00,VWS V14.01,2013-08-08 11:21:00,
2013-08-08 06:26:00,68.9,64.9,29.91,East,101,3.0,3.0,87,0.00,,---,0.00,VWS V14.01,2013-08-08 11:26:00,
2013-08-08 06:30:00,68.9,64.9,29.91,ESE,123,1.0,5.0,87,0.00,,---,0.00,VWS V14.01,2013-08-08 11:30:00,
2013-08-08 06:31:00,68.9,64.9,29.91,ESE,123,0.0,1.0,87,0.00,,---,0.00,VWS V14.01,2013-08-08 11:31:00,
2013-08-08 06:36:00,68.9,64.9,29.91,East,87,0.0,6.0,87,0.00,,---,0.00,VWS V14.01,2013-08-08 11:36:00,
2013-08-08 06:41:00,68.8,64.8,29.91,ESE,117,2.0,6.0,87,0.00,,---,0.00,VWS V14.01,2013-08-08 11:41:00,
2013-08-08 06:46:00,68.8,64.8,29.92,ENE,57,1.0,6.0,87,0.00,,---,0.00,VWS V14.01,2013-08-08 11:46:00,
2013-08-08 06:51:00,68.8,64.8,29.92,ENE,60,1.0,6.0,87,0.00,,---,0.00,VWS V14.01,2013-08-08 11:51:00,
2013-08-08 06:56:00,68.8,64.8,29.92,ENE,60,0.0,6.0,87,0.00,,---,0.00,VWS V14.01,2013-08-08 11:56:00,
2013-08-08 07:00:00,68.8,64.8,29.92,ENE,57,0.0,6.0,87,0.00,,---,0.00,VWS V14.01,2013-08-08 12:00:00,
2013-08-08 07:01:00,68.8,64.8,29.92,ENE,57,0.0,2.0,87,0.00,,---,0.00,VWS V14.01,2013-08-08 12:01:00,
2013-08-08 07:06:00,68.6,64.6,29.92,ENE,57,1.0,2.0,87,0.00,,---,0.00,VWS V14.01,2013-08-08 12:06:00,
2013-08-08 07:11:00,68.6,64.6,29.92,ENE,57,0.0,2.0,87,0.00,,---,0.00,VWS V14.01,2013-08-08 12:11:00,
2013-08-08 07:16:00,68.6,64.9,29.94,ENE,57,0.0,2.0,88,0.00,,---,0.00,VWS V14.01,2013-08-08 12:16:00,
2013-08-08 07:21:00,68.6,64.9,29.94,ENE,57,0.0,2.0,88,0.00,,---,0.00,VWS V14.01,2013-08-08 12:21:00,
2013-08-08 07:26:00,68.6,64.9,29.94,ENE,57,0.0,2.0,88,0.00,,---,0.00,VWS V14.01,2013-08-08 12:26:00,
2013-08-08 07:30:00,68.8,65.1,29.94,ENE,57,0.0,2.0,88,0.00,,---,0.00,VWS V14.01,2013-08-08 12:30:00,
2013-08-08 07:31:00,68.8,65.1,29.94,ENE,57,0.0,0.0,88,0.00,,---,0.00,VWS V14.01,2013-08-08 12:31:00,
2013-08-08 07:36:00,68.8,65.1,29.94,East,95,0.0,3.0,88,0.00,,---,0.00,VWS V14.01,2013-08-08 12:36:00,
2013-08-08 07:41:00,68.8,65.1,29.94,East,95,0.0,3.0,88,0.00,,---,0.00,VWS V14.01,2013-08-08 12:41:00,
2013-08-08 07:46:00,68.8,65.1,29.92,East,95,1.0,3.0,88,0.00,,---,0.00,VWS V14.01,2013-08-08 12:46:00,
2013-08-08 07:51:00,68.8,65.1,29.92,East,83,0.0,3.0,88,0.00,,---,0.00,VWS V14.01,2013-08-08 12:51:00,
2013-08-08 07:56:00,68.8,65.1,29.92,East,83,1.0,3.0,88,0.00,,---,0.00,VWS V14.01,2013-08-08 12:56:00,
2013-08-08 08:00:00,68.9,65.2,29.93,East,96,2.0,3.0,88,0.00,,---,0.00,VWS V14.01,2013-08-08 13:00:00,
2013-08-08 08:01:00,68.9,65.2,29.93,East,96,0.0,2.0,88,0.00,,---,0.00,VWS V14.01,2013-08-08 13:01:00,
2013-08-08 08:06:00,68.9,65.2,29.93,ESE,103,0.0,3.0,88,0.00,,---,0.00,VWS V14.01,2013-08-08 13:06:00,
2013-08-08 08:11:00,68.9,65.2,29.93,NNE,27,1.0,4.0,88,0.00,,---,0.00,VWS V14.01,2013-08-08 13:11:00,
2013-08-08 08:16:00,68.9,65.2,29.92,NNE,27,1.0,4.0,88,0.00,,---,0.00,VWS V14.01,2013-08-08 13:16:00,
2013-08-08 08:21:00,68.9,65.2,29.92,East,98,5.0,5.0,88,0.00,,---,0.00,VWS V14.01,2013-08-08 13:21:00,
2013-08-08 08:26:00,68.9,65.2,29.92,East,98,0.0,7.0,88,0.00,,---,0.00,VWS V14.01,2013-08-08 13:26:00,
2013-08-08 08:30:00,69.1,65.4,29.92,East,92,1.0,7.0,88,0.00,,---,0.00,VWS V14.01,2013-08-08 13:30:00,
2013-08-08 08:31:00,69.1,65.4,29.92,East,92,0.0,1.0,88,0.00,,---,0.00,VWS V14.01,2013-08-08 13:31:00,
2013-08-08 08:36:00,69.1,65.4,29.92,ESE,102,0.0,5.0,88,0.00,,---,0.00,VWS V14.01,2013-08-08 13:36:00,
2013-08-08 08:41:00,69.1,65.4,29.92,SE,142,1.0,5.0,88,0.00,,---,0.00,VWS V14.01,2013-08-08 13:41:00,
2013-08-08 08:46:00,69.3,65.6,29.91,ENE,69,3.0,5.0,88,0.00,,---,0.00,VWS V14.01,2013-08-08 13:46:00,
2013-08-08 08:51:00,69.4,65.7,29.91,ESE,115,2.0,5.0,88,0.00,,---,0.00,VWS V14.01,2013-08-08 13:51:00,
2013-08-08 08:56:00,69.6,65.9,29.91,East,98,5.0,7.0,88,0.00,,---,0.00,VWS V14.01,2013-08-08 13:56:00,
2013-08-08 09:00:00,69.6,65.9,29.89,East,94,2.0,9.0,88,0.00,,---,0.00,VWS V14.01,2013-08-08 14:00:00,
2013-08-08 09:01:00,69.8,66.1,29.89,East,94,1.0,2.0,88,0.00,,---,0.00,VWS V14.01,2013-08-08 14:01:00,
2013-08-08 09:06:00,69.9,66.2,29.89,ENE,74,1.0,7.0,88,0.00,,---,0.00,VWS V14.01,2013-08-08 14:06:00,
2013-08-08 09:11:00,70.1,66.1,29.89,SE,128,3.0,7.0,87,0.00,,---,0.00,VWS V14.01,2013-08-08 14:11:00,
2013-08-08 09:16:00,70.3,66.6,29.89,ENE,75,4.0,7.0,88,0.00,,---,0.00,VWS V14.01,2013-08-08 14:16:00,
2013-08-08 09:21:00,70.8,66.7,29.89,ESE,119,1.0,7.0,87,0.00,,---,0.00,VWS V14.01,2013-08-08 14:21:00,
2013-08-08 09:26:00,71.3,67.2,29.89,ENE,70,1.0,8.0,87,0.00,,---,0.00,VWS V14.01,2013-08-08 14:26:00,
2013-08-08 09:30:00,71.6,67.5,29.87,ESE,108,5.0,8.0,87,0.00,,---,0.00,VWS V14.01,2013-08-08 14:30:00,
2013-08-08 09:31:00,71.8,67.7,29.87,SE,127,2.0,7.0,87,0.00,,---,0.00,VWS V14.01,2013-08-08 14:31:00,
2013-08-08 09:36:00,72.0,67.6,29.87,East,98,7.0,9.0,86,0.00,,---,0.00,VWS V14.01,2013-08-08 14:36:00,
2013-08-08 09:41:00,72.1,67.3,29.87,ESE,105,5.0,10.0,85,0.00,,---,0.00,VWS V14.01,2013-08-08 14:41:00,
2013-08-08 09:46:00,72.3,67.5,29.86,ENE,76,1.0,10.0,85,0.00,,---,0.00,VWS V14.01,2013-08-08 14:46:00,
2013-08-08 09:51:00,72.5,67.7,29.86,NE,49,6.0,10.0,85,0.00,,---,0.00,VWS V14.01,2013-08-08 14:51:00,
2013-08-08 09:56:00,72.5,67.4,29.86,ENE,75,7.0,10.0,84,0.00,,---,0.00,VWS V14.01,2013-08-08 14:56:00,
2013-08-08 10:00:00,72.1,67.0,29.84,NE,42,5.0,11.0,84,0.00,,---,0.00,VWS V14.01,2013-08-08 15:00:00,
2013-08-08 10:01:00,72.1,67.0,29.84,ENE,72,4.0,7.0,84,0.00,,---,0.00,VWS V14.01,2013-08-08 15:01:00,
2013-08-08 10:06:00,72.1,67.0,29.84,ESE,102,7.0,9.0,84,0.00,,---,0.00,VWS V14.01,2013-08-08 15:06:00,
2013-08-08 10:11:00,72.1,67.0,29.84,ENE,57,3.0,9.0,84,0.00,,---,0.00,VWS V14.01,2013-08-08 15:11:00,
2013-08-08 10:16:00,72.1,67.0,29.81,NE,46,6.0,14.0,84,0.00,,---,0.00,VWS V14.01,2013-08-08 15:16:00,
2013-08-08 10:21:00,72.0,66.6,29.81,ENE,75,5.0,14.0,83,0.00,,---,0.00,VWS V14.01,2013-08-08 15:21:00,
2013-08-08 10:26:00,71.8,66.4,29.81,ENE,61,3.0,14.0,83,0.00,,---,0.00,VWS V14.01,2013-08-08 15:26:00,
2013-08-08 10:30:00,71.8,66.4,29.82,NE,51,2.0,15.0,83,0.00,,---,0.00,VWS V14.01,2013-08-08 15:30:00,
2013-08-08 10:31:00,71.8,66.4,29.82,NE,43,0.0,2.0,83,0.00,,---,0.00,VWS V14.01,2013-08-08 15:31:00,
2013-08-08 10:36:00,71.8,66.4,29.82,NE,51,4.0,8.0,83,0.00,,---,0.00,VWS V14.01,2013-08-08 15:36:00,
2013-08-08 10:41:00,71.6,66.2,29.82,NNW,340,0.0,11.0,83,0.00,,---,0.00,VWS V14.01,2013-08-08 15:41:00,
2013-08-08 10:46:00,71.6,66.2,29.89,East,101,0.0,11.0,83,0.00,,---,0.00,VWS V14.01,2013-08-08 15:46:00,
2013-08-08 10:51:00,71.6,66.2,29.89,East,101,0.0,11.0,83,0.00,,---,0.00,VWS V14.01,2013-08-08 15:51:00,
2013-08-08 10:56:00,71.8,66.4,29.89,East,101,0.0,11.0,83,0.00,,---,0.00,VWS V14.01,2013-08-08 15:56:00,
2013-08-08 11:00:00,71.8,66.4,29.91,East,101,0.0,11.0,83,0.00,,---,0.00,VWS V14.01,2013-08-08 16:00:00,
2013-08-08 11:01:00,71.8,66.4,29.91,East,101,0.0,0.0,83,0.00,,---,0.00,VWS V14.01,2013-08-08 16:01:00,
2013-08-08 11:06:00,71.8,66.4,29.91,East,101,0.0,3.0,83,0.00,,---,0.00,VWS V14.01,2013-08-08 16:06:00,
2013-08-08 11:11:00,71.8,66.7,29.91,East,101,0.0,3.0,84,0.00,,---,0.00,VWS V14.01,2013-08-08 16:11:00,
2013-08-08 11:16:00,71.8,66.7,29.90,East,101,0.0,3.0,84,0.00,,---,0.00,VWS V14.01,2013-08-08 16:16:00,
2013-08-08 11:21:00,71.8,66.7,29.90,East,88,2.0,5.0,84,0.00,,---,0.00,VWS V14.01,2013-08-08 16:21:00,
2013-08-08 11:26:00,71.8,67.1,29.90,NNE,29,1.0,5.0,85,0.00,,---,0.00,VWS V14.01,2013-08-08 16:26:00,
2013-08-08 11:30:00,71.6,66.9,29.90,NNE,30,0.0,5.0,85,0.00,,---,0.00,VWS V14.01,2013-08-08 16:30:00,
2013-08-08 11:31:00,71.6,66.9,29.90,NNE,30,0.0,0.0,85,0.00,,---,0.00,VWS V14.01,2013-08-08 16:31:00,
2013-08-08 11:36:00,71.8,67.1,29.90,NNE,30,0.0,1.0,85,0.00,,---,0.00,VWS V14.01,2013-08-08 16:36:00,
2013-08-08 11:46:00,72.0,67.2,29.90,NE,43,3.0,3.0,85,0.00,,---,0.00,VWS V14.01,2013-08-08 16:46:00,
2013-08-08 11:51:00,72.0,67.2,29.90,NE,43,1.0,3.0,85,0.00,,---,0.00,VWS V14.01,2013-08-08 16:51:00,
2013-08-08 11:56:00,72.0,67.6,29.90,NE,34,2.0,5.0,86,0.00,,---,0.00,VWS V14.01,2013-08-08 16:56:00,
2013-08-08 12:00:00,71.8,66.4,29.91,East,101,0.0,11.0,83,0.00,,---,0.00,VWS V14.01,2013-08-08 17:00:00,
2013-08-08 12:01:00,72.1,67.7,29.90,NE,40,3.0,3.0,86,0.00,,---,0.00,VWS V14.01,2013-08-08 17:01:00,
2013-08-08 12:06:00,72.3,67.9,29.90,NE,42,1.0,6.0,86,0.00,,---,0.00,VWS V14.01,2013-08-08 17:06:00,
2013-08-08 12:11:00,72.3,67.9,29.90,NE,40,0.0,6.0,86,0.00,,---,0.00,VWS V14.01,2013-08-08 17:11:00,
2013-08-08 12:16:00,72.5,68.1,29.92,NE,40,0.0,6.0,86,0.00,,---,0.00,VWS V14.01,2013-08-08 17:16:00,
2013-08-08 12:21:00,72.8,68.4,29.92,NE,40,0.0,6.0,86,0.00,,---,0.00,VWS V14.01,2013-08-08 17:21:00,
2013-08-08 12:28:00,73.0,68.2,29.92,NE,40,0.0,0.0,85,0.00,,---,0.00,VWS V14.01,2013-08-08 17:28:00,
2013-08-08 12:30:00,71.6,66.9,29.90,NNE,30,0.0,5.0,85,0.00,,---,0.00,VWS V14.01,2013-08-08 17:30:00,
2013-08-08 12:33:00,73.2,68.4,29.92,NE,40,0.0,1.0,85,0.00,,---,0.00,VWS V14.01,2013-08-08 17:33:00,
2013-08-08 12:38:00,73.2,68.4,29.92,NE,40,0.0,3.0,85,0.00,,---,0.00,VWS V14.01,2013-08-08 17:38:00,
2013-08-08 12:43:00,73.2,68.4,29.92,NE,40,2.0,3.0,85,0.00,,---,0.00,VWS V14.01,2013-08-08 17:43:00,
2013-08-08 12:48:00,73.2,68.4,29.91,NE,47,1.0,3.0,85,0.00,,---,0.00,VWS V14.01,2013-08-08 17:48:00,
2013-08-08 12:53:00,73.0,68.2,29.91,NE,42,0.0,4.0,85,0.00,,---,0.00,VWS V14.01,2013-08-08 17:53:00,
2013-08-08 12:58:00,72.8,68.0,29.91,NNE,17,2.0,4.0,85,0.00,,---,0.00,VWS V14.01,2013-08-08 17:58:00,
2013-08-08 13:00:00,72.1,67.7,29.90,NE,40,2.0,5.0,86,0.00,,---,0.00,VWS V14.01,2013-08-08 18:00:00,
2013-08-08 13:03:00,72.7,67.9,29.91,NNE,17,3.0,5.0,85,0.00,,---,0.00,VWS V14.01,2013-08-08 18:03:00,
2013-08-08 13:08:00,72.7,67.9,29.91,NNE,15,1.0,6.0,85,0.00,,---,0.00,VWS V14.01,2013-08-08 18:08:00,
2013-08-08 13:13:00,72.7,67.9,29.91,NNE,15,0.0,6.0,85,0.00,,---,0.00,VWS V14.01,2013-08-08 18:13:00,
2013-08-08 13:18:00,72.7,67.9,29.91,NNE,12,4.0,6.0,85,0.00,,---,0.00,VWS V14.01,2013-08-08 18:18:00,
2013-08-08 13:23:00,72.8,68.0,29.91,NNE,13,0.0,6.0,85,0.00,,---,0.00,VWS V14.01,2013-08-08 18:23:00,
2013-08-08 13:28:00,73.0,68.2,29.91,NNE,13,0.0,6.0,85,0.00,,---,0.00,VWS V14.01,2013-08-08 18:28:00,
2013-08-08 13:30:00,73.0,68.2,29.92,NE,40,1.0,2.0,85,0.00,,---,0.00,VWS V14.01,2013-08-08 18:30:00,
2013-08-08 13:33:00,73.0,68.2,29.91,NNE,13,0.0,2.0,85,0.00,,---,0.00,VWS V14.01,2013-08-08 18:33:00,
2013-08-08 13:38:00,73.2,68.4,29.91,NNE,13,0.0,2.0,85,0.00,,---,0.00,VWS V14.01,2013-08-08 18:38:00,
2013-08-08 13:43:00,73.2,68.4,29.91,NNE,13,0.0,2.0,85,0.00,,---,0.00,VWS V14.01,2013-08-08 18:43:00,
2013-08-08 13:48:00,73.2,68.4,29.91,NNE,13,0.0,3.0,85,0.00,,---,0.00,VWS V14.01,2013-08-08 18:48:00,
2013-08-08 13:53:00,73.2,68.4,29.91,NNE,13,4.0,4.0,85,0.00,,---,0.00,VWS V14.01,2013-08-08 18:53:00,
2013-08-08 13:58:00,73.0,68.2,29.91,NNE,13,0.0,4.0,85,0.00,,---,0.00,VWS V14.01,2013-08-08 18:58:00,
2013-08-08 14:00:00,72.8,68.0,29.91,NNE,17,1.0,4.0,85,0.00,,---,0.00,VWS V14.01,2013-08-08 19:00:00,
2013-08-08 14:03:00,73.2,68.4,29.92,NNE,13,0.0,0.0,85,0.00,,---,0.00,VWS V14.01,2013-08-08 19:03:00,
2013-08-08 14:08:00,73.2,68.4,29.92,NNE,13,1.0,3.0,85,0.00,,---,0.00,VWS V14.01,2013-08-08 19:08:00,
2013-08-08 14:13:00,73.3,68.5,29.92,NNE,13,2.0,3.0,85,0.00,,---,0.00,VWS V14.01,2013-08-08 19:13:00,
2013-08-08 14:18:00,73.3,68.5,29.91,NNE,13,1.0,3.0,85,0.00,,---,0.00,VWS V14.01,2013-08-08 19:18:00,
2013-08-08 14:23:00,73.3,68.5,29.91,North,5,2.0,4.0,85,0.00,,---,0.00,VWS V14.01,2013-08-08 19:23:00,
2013-08-08 14:28:00,73.3,68.5,29.91,North,5,3.0,4.0,85,0.00,,---,0.00,VWS V14.01,2013-08-08 19:28:00,
2013-08-08 14:30:00,73.0,68.2,29.91,NNE,13,0.0,6.0,85,0.00,,---,0.00,VWS V14.01,2013-08-08 19:30:00,
2013-08-08 14:33:00,73.3,68.5,29.91,North,360,3.0,4.0,85,0.00,,---,0.00,VWS V14.01,2013-08-08 19:33:00,
2013-08-08 14:38:00,73.3,68.5,29.91,NE,36,5.0,5.0,85,0.00,,---,0.00,VWS V14.01,2013-08-08 19:38:00,
2013-08-08 14:43:00,73.3,68.5,29.91,North,360,5.0,6.0,85,0.00,,---,0.00,VWS V14.01,2013-08-08 19:43:00,
2013-08-08 14:48:00,73.2,68.4,29.91,North,350,2.0,6.0,85,0.00,,---,0.00,VWS V14.01,2013-08-08 19:48:00,
2013-08-08 14:53:00,73.2,68.4,29.91,NNE,20,1.0,6.0,85,0.00,,---,0.00,VWS V14.01,2013-08-08 19:53:00,
2013-08-08 14:58:00,73.2,68.4,29.91,North,360,3.0,6.0,85,0.00,,---,0.00,VWS V14.01,2013-08-08 19:58:00,
2013-08-08 15:00:00,73.0,68.2,29.92,NNE,13,0.0,4.0,85,0.00,,---,0.00,VWS V14.01,2013-08-08 20:00:00,
2013-08-08 15:03:00,73.0,68.2,29.91,NNE,13,4.0,6.0,85,0.00,,---,0.00,VWS V14.01,2013-08-08 20:03:00,
2013-08-08 15:08:00,73.0,68.6,29.91,North,5,2.0,6.0,86,0.00,,---,0.00,VWS V14.01,2013-08-08 20:08:00,
2013-08-08 15:13:00,73.0,68.6,29.91,North,360,3.0,6.0,86,0.00,,---,0.00,VWS V14.01,2013-08-08 20:13:00,
2013-08-08 15:18:00,73.0,68.6,29.91,North,355,9.0,9.0,86,0.00,,---,0.00,VWS V14.01,2013-08-08 20:18:00,
2013-08-08 15:23:00,73.0,68.6,29.91,North,5,5.0,9.0,86,0.00,,---,0.00,VWS V14.01,2013-08-08 20:23:00,
2013-08-08 15:28:00,72.8,68.0,29.91,North,10,5.0,9.0,85,0.00,,---,0.00,VWS V14.01,2013-08-08 20:28:00,
2013-08-08 15:30:00,73.3,68.5,29.91,North,360,3.0,5.0,85,0.00,,---,0.00,VWS V14.01,2013-08-08 20:30:00,
2013-08-08 15:33:00,72.8,68.0,29.90,North,11,4.0,8.0,85,0.00,,---,0.00,VWS V14.01,2013-08-08 20:33:00,
2013-08-08 15:38:00,72.7,67.9,29.90,North,10,3.0,10.0,85,0.00,,---,0.00,VWS V14.01,2013-08-08 20:38:00,
2013-08-08 15:43:00,72.7,67.9,29.90,NNE,22,0.0,10.0,85,0.00,,---,0.00,VWS V14.01,2013-08-08 20:43:00,
2013-08-08 15:48:00,72.8,68.0,29.91,NNE,31,0.0,10.0,85,0.00,,---,0.00,VWS V14.01,2013-08-08 20:48:00,
2013-08-08 15:53:00,72.8,68.0,29.91,ENE,59,1.0,10.0,85,0.00,,---,0.00,VWS V14.01,2013-08-08 20:53:00,
2013-08-08 15:58:00,72.8,68.0,29.91,ENE,59,0.0,10.0,85,0.00,,---,0.00,VWS V14.01,2013-08-08 20:58:00,
2013-08-08 16:00:00,73.2,68.4,29.91,North,5,4.0,6.0,85,0.00,,---,0.00,VWS V14.01,2013-08-08 21:00:00,
2013-08-08 16:03:00,72.8,68.0,29.91,ENE,57,0.0,4.0,85,0.00,,---,0.00,VWS V14.01,2013-08-08 21:03:00,
2013-08-08 16:08:00,72.7,67.9,29.91,ENE,57,3.0,4.0,85,0.00,,---,0.00,VWS V14.01,2013-08-08 21:08:00,
2013-08-08 16:13:00,72.7,67.9,29.91,NNE,32,3.0,4.0,85,0.00,,---,0.00,VWS V14.01,2013-08-08 21:13:00,
2013-08-08 16:18:00,72.5,67.7,29.91,NNE,32,2.0,4.0,85,0.00,,---,0.00,VWS V14.01,2013-08-08 21:18:00,
2013-08-08 16:23:00,72.5,67.7,29.91,NNE,32,3.0,6.0,85,0.00,,---,0.00,VWS V14.01,2013-08-08 21:23:00,
2013-08-08 16:28:00,72.3,67.5,29.91,NNE,31,2.0,6.0,85,0.00,,---,0.00,VWS V14.01,2013-08-08 21:28:00,
2013-08-08 16:30:00,72.8,68.0,29.90,North,5,6.0,9.0,85,0.00,,---,0.00,VWS V14.01,2013-08-08 21:30:00,
2013-08-08 16:33:00,72.3,67.5,29.91,NE,36,0.0,3.0,85,0.00,,---,0.00,VWS V14.01,2013-08-08 21:33:00,
2013-08-08 16:38:00,72.1,67.7,29.91,NNE,28,3.0,3.0,86,0.00,,---,0.00,VWS V14.01,2013-08-08 21:38:00,
2013-08-08 16:43:00,72.1,67.3,29.91,North,355,3.0,5.0,85,0.00,,---,0.00,VWS V14.01,2013-08-08 21:43:00,
2013-08-08 16:48:00,72.1,67.7,29.92,NNE,14,2.0,5.0,86,0.00,,---,0.00,VWS V14.01,2013-08-08 21:48:00,
2013-08-08 16:53:00,72.3,67.9,29.92,NNE,14,0.0,5.0,86,0.00,,---,0.00,VWS V14.01,2013-08-08 21:53:00,
2013-08-08 16:59:00,72.3,67.9,29.92,NNE,14,0.0,5.0,86,0.00,,---,0.00,VWS V14.01,2013-08-08 21:59:00,
2013-08-08 17:00:00,72.8,68.0,29.91,ENE,59,1.0,10.0,85,0.00,,---,0.00,VWS V14.01,2013-08-08 22:00:00,
2013-08-08 17:04:00,72.3,67.9,29.92,NNE,14,0.0,1.0,86,0.00,,---,0.00,VWS V14.01,2013-08-08 22:04:00,
2013-08-08 17:09:00,72.5,68.1,29.92,NNE,14,0.0,3.0,86,0.00,,---,0.00,VWS V14.01,2013-08-08 22:09:00,
2013-08-08 17:14:00,72.5,67.7,29.92,East,101,0.0,3.0,85,0.00,,---,0.00,VWS V14.01,2013-08-08 22:14:00,
2013-08-08 17:19:00,72.5,67.7,29.92,East,89,1.0,5.0,85,0.00,,---,0.00,VWS V14.01,2013-08-08 22:19:00,
2013-08-08 17:24:00,72.5,67.7,29.92,ENE,65,1.0,5.0,85,0.00,,---,0.00,VWS V14.01,2013-08-08 22:24:00,
2013-08-08 17:29:00,72.7,67.6,29.92,ENE,65,0.0,5.0,84,0.00,,---,0.00,VWS V14.01,2013-08-08 22:29:00,
2013-08-08 17:30:00,72.3,67.5,29.91,NNE,33,1.0,6.0,85,0.00,,---,0.00,VWS V14.01,2013-08-08 22:30:00,
2013-08-08 17:34:00,72.7,67.9,29.92,ENE,65,1.0,2.0,85,0.00,,---,0.00,VWS V14.01,2013-08-08 22:34:00,
2013-08-08 17:39:00,72.8,67.7,29.92,ENE,65,1.0,3.0,84,0.00,,---,0.00,VWS V14.01,2013-08-08 22:39:00,
2013-08-08 17:45:00,72.8,68.0,29.91,ENE,65,1.0,3.0,85,0.00,,---,0.00,VWS V14.01,2013-08-08 22:45:00,
2013-08-08 17:50:00,73.0,68.2,29.91,ENE,65,2.0,3.0,85,0.00,,---,0.00,VWS V14.01,2013-08-08 22:50:00,
2013-08-08 17:55:00,72.8,67.7,29.91,NE,37,2.0,4.0,84,0.00,,---,0.00,VWS V14.01,2013-08-08 22:55:00,
2013-08-08 18:00:00,72.7,67.6,29.91,NNW,341,2.0,6.0,84,0.00,,---,0.00,VWS V14.01,2013-08-08 23:00:00,
2013-08-08 18:05:00,72.7,67.2,29.91,NNW,341,0.0,3.0,83,0.00,,---,0.00,VWS V14.01,2013-08-08 23:05:00,
2013-08-08 18:10:00,72.5,67.1,29.91,NNW,341,0.0,3.0,83,0.00,,---,0.00,VWS V14.01,2013-08-08 23:10:00,
2013-08-08 18:15:00,72.5,67.1,29.92,NNW,341,0.0,3.0,83,0.00,,---,0.00,VWS V14.01,2013-08-08 23:15:00,
2013-08-08 18:20:00,72.7,67.2,29.92,NNW,341,0.0,3.0,83,0.00,,---,0.00,VWS V14.01,2013-08-08 23:20:00,
2013-08-08 18:25:00,72.7,67.2,29.92,NNW,341,0.0,3.0,83,0.00,,---,0.00,VWS V14.01,2013-08-08 23:25:00,
2013-08-08 18:30:00,72.5,67.1,29.92,NNW,341,0.0,3.0,83,0.00,,---,0.00,VWS V14.01,2013-08-08 23:30:00,
2013-08-08 18:35:00,72.5,67.1,29.92,NNW,341,0.0,2.0,83,0.00,,---,0.00,VWS V14.01,2013-08-08 23:35:00,
2013-08-08 18:40:00,72.5,66.7,29.92,North,350,1.0,2.0,82,0.00,,---,0.00,VWS V14.01,2013-08-08 23:40:00,
2013-08-08 18:45:00,72.3,66.8,29.92,North,350,0.0,2.0,83,0.00,,---,0.00,VWS V14.01,2013-08-08 23:45:00,
2013-08-08 18:51:00,72.3,66.5,29.92,North,350,1.0,2.0,82,0.00,,---,0.00,VWS V14.01,2013-08-08 23:51:00,
2013-08-08 18:56:00,72.1,66.7,29.92,North,350,1.0,3.0,83,0.00,,---,0.00,VWS V14.01,2013-08-08 23:56:00,
2013-08-08 19:00:00,72.7,67.6,29.91,NNW,341,0.0,6.0,84,0.00,,---,0.00,VWS V14.01,2013-08-09 00:00:00,
2013-08-08 19:01:00,72.1,66.7,29.91,NNE,18,0.0,0.0,83,0.00,,---,0.00,VWS V14.01,2013-08-09 00:01:00,
2013-08-08 19:06:00,72.0,66.6,29.91,NNE,18,2.0,2.0,83,0.00,,---,0.00,VWS V14.01,2013-08-09 00:06:00,
2013-08-08 19:11:00,72.0,66.6,29.91,NNE,17,4.0,4.0,83,0.00,,---,0.00,VWS V14.01,2013-08-09 00:11:00,
2013-08-08 19:16:00,72.0,66.2,29.91,NNE,17,3.0,5.0,82,0.00,,---,0.00,VWS V14.01,2013-08-09 00:16:00,
2013-08-08 19:21:00,72.0,66.2,29.91,North,9,3.0,5.0,82,0.00,,---,0.00,VWS V14.01,2013-08-09 00:21:00,
2013-08-08 19:27:00,71.8,66.0,29.91,North,5,1.0,5.0,82,0.00,,---,0.00,VWS V14.01,2013-08-09 00:27:00,
2013-08-08 19:30:00,72.5,67.1,29.92,NNW,341,0.0,3.0,83,0.00,,---,0.00,VWS V14.01,2013-08-09 00:30:00,
2013-08-08 19:32:00,71.8,66.0,29.91,North,355,3.0,4.0,82,0.00,,---,0.00,VWS V14.01,2013-08-09 00:32:00,
2013-08-08 19:37:00,71.6,65.8,29.91,NNE,12,1.0,5.0,82,0.00,,---,0.00,VWS V14.01,2013-08-09 00:37:00,
2013-08-08 19:42:00,71.6,65.8,29.91,NNE,13,0.0,5.0,82,0.00,,---,0.00,VWS V14.01,2013-08-09 00:42:00,
2013-08-08 19:47:00,71.6,65.8,29.91,NNE,14,0.0,5.0,82,0.00,,---,0.00,VWS V14.01,2013-08-09 00:47:00,
2013-08-08 19:52:00,71.5,65.4,29.91,North,351,6.0,7.0,81,0.00,,---,0.00,VWS V14.01,2013-08-09 00:52:00,
2013-08-08 19:57:00,71.3,65.2,29.91,NNE,16,3.0,7.0,81,0.00,,---,0.00,VWS V14.01,2013-08-09 00:57:00,
2013-08-08 20:00:00,72.1,66.7,29.91,NNE,18,0.0,5.0,83,0.00,,---,0.00,VWS V14.01,2013-08-09 01:00:00,
2013-08-08 20:02:00,71.3,65.2,29.91,NNE,16,3.0,3.0,81,0.00,,---,0.00,VWS V14.01,2013-08-09 01:02:00,
2013-08-08 20:07:00,71.3,65.2,29.91,NNE,13,2.0,5.0,81,0.00,,---,0.00,VWS V14.01,2013-08-09 01:07:00,
2013-08-08 20:12:00,71.1,64.6,29.91,NNE,30,1.0,5.0,80,0.00,,---,0.00,VWS V14.01,2013-08-09 01:12:00,
2013-08-08 20:17:00,71.1,64.6,29.91,NNE,30,0.0,5.0,80,0.00,,---,0.00,VWS V14.01,2013-08-09 01:17:00,
2013-08-08 20:22:00,70.9,64.4,29.91,North,360,2.0,5.0,80,0.00,,---,0.00,VWS V14.01,2013-08-09 01:22:00,
2013-08-08 20:27:00,70.9,64.1,29.91,North,360,1.0,5.0,79,0.00,,---,0.00,VWS V14.01,2013-08-09 01:27:00,
2013-08-08 20:30:00,71.8,66.0,29.91,North,355,4.0,5.0,82,0.00,,---,0.00,VWS V14.01,2013-08-09 01:30:00,
2013-08-08 20:32:00,70.9,64.1,29.91,North,360,2.0,2.0,79,0.00,,---,0.00,VWS V14.01,2013-08-09 01:32:00,
2013-08-08 20:37:00,70.8,64.0,29.91,North,360,2.0,3.0,79,0.00,,---,0.00,VWS V14.01,2013-08-09 01:37:00,
2013-08-08 20:42:00,70.8,64.0,29.91,North,5,5.0,5.0,79,0.00,,---,0.00,VWS V14.01,2013-08-09 01:42:00,
2013-08-08 20:47:00,70.8,64.0,29.91,North,5,1.0,5.0,79,0.00,,---,0.00,VWS V14.01,2013-08-09 01:47:00,
2013-08-08 20:52:00,70.8,64.0,29.91,North,5,0.0,5.0,79,0.00,,---,0.00,VWS V14.01,2013-08-09 01:52:00,
2013-08-08 20:57:00,70.8,64.0,29.91,NNE,31,1.0,5.0,79,0.00,,---,0.00,VWS V14.01,2013-08-09 01:57:00,
2013-08-08 21:00:00,71.3,65.2,29.91,NNE,16,1.0,7.0,81,0.00,,---,0.00,VWS V14.01,2013-08-09 02:00:00,
2013-08-08 21:02:00,70.8,64.0,29.91,NNE,31,0.0,3.0,79,0.00,,---,0.00,VWS V14.01,2013-08-09 02:02:00,
2013-08-08 21:08:00,70.8,64.0,29.91,NNE,17,2.0,4.0,79,0.00,,---,0.00,VWS V14.01,2013-08-09 02:08:00,
2013-08-08 21:13:00,70.8,64.0,29.91,NNE,17,0.0,4.0,79,0.00,,---,0.00,VWS V14.01,2013-08-09 02:13:00,
2013-08-08 21:18:00,70.8,64.0,29.93,NNE,17,1.0,4.0,79,0.00,,---,0.00,VWS V14.01,2013-08-09 02:18:00,
2013-08-08 21:23:00,70.8,64.3,29.93,NNE,17,0.0,4.0,80,0.00,,---,0.00,VWS V14.01,2013-08-09 02:23:00,
2013-08-08 21:28:00,70.6,64.1,29.93,NNE,17,0.0,4.0,80,0.00,,---,0.00,VWS V14.01,2013-08-09 02:28:00,
2013-08-08 21:30:00,70.9,64.1,29.91,North,360,0.0,5.0,79,0.00,,---,0.00,VWS V14.01,2013-08-09 02:30:00,
2013-08-08 21:33:00,70.6,64.1,29.93,NNE,17,0.0,1.0,80,0.00,,---,0.00,VWS V14.01,2013-08-09 02:33:00,
2013-08-08 21:38:00,70.4,63.9,29.93,NNE,17,1.0,2.0,80,0.00,,---,0.00,VWS V14.01,2013-08-09 02:38:00,
2013-08-08 21:43:00,70.4,63.9,29.93,NNE,17,0.0,2.0,80,0.00,,---,0.00,VWS V14.01,2013-08-09 02:43:00,
2013-08-08 21:48:00,70.4,64.3,29.93,NNE,17,0.0,2.0,81,0.00,,---,0.00,VWS V14.01,2013-08-09 02:48:00,
2013-08-08 21:53:00,70.4,64.3,29.93,NNE,17,0.0,2.0,81,0.00,,---,0.00,VWS V14.01,2013-08-09 02:53:00,
2013-08-08 21:58:00,70.4,64.3,29.93,NNE,17,0.0,2.0,81,0.00,,---,0.00,VWS V14.01,2013-08-09 02:58:00,
2013-08-08 22:00:00,70.8,64.0,29.91,NNE,31,3.0,5.0,79,0.00,,---,0.00,VWS V14.01,2013-08-09 03:00:00,
2013-08-08 22:03:00,70.4,64.3,29.94,NNE,17,0.0,0.0,81,0.00,,---,0.00,VWS V14.01,2013-08-09 03:03:00,
2013-08-08 22:08:00,70.3,64.6,29.94,NNE,17,0.0,0.0,82,0.00,,---,0.00,VWS V14.01,2013-08-09 03:08:00,
2013-08-08 22:13:00,70.3,64.6,29.94,NNE,17,0.0,0.0,82,0.00,,---,0.00,VWS V14.01,2013-08-09 03:13:00,
2013-08-08 22:18:00,70.3,64.6,29.95,NNE,17,0.0,0.0,82,0.00,,---,0.00,VWS V14.01,2013-08-09 03:18:00,
2013-08-08 22:23:00,70.3,64.6,29.95,NNE,17,0.0,0.0,82,0.00,,---,0.00,VWS V14.01,2013-08-09 03:23:00,
2013-08-08 22:28:00,70.3,64.6,29.95,NNE,17,0.0,0.0,82,0.00,,---,0.00,VWS V14.01,2013-08-09 03:28:00,
2013-08-08 22:30:00,70.6,64.1,29.93,NNE,17,0.0,4.0,80,0.00,,---,0.00,VWS V14.01,2013-08-09 03:30:00,
2013-08-08 22:33:00,70.3,64.9,29.95,NNE,17,1.0,2.0,83,0.00,,---,0.00,VWS V14.01,2013-08-09 03:33:00,
2013-08-08 22:38:00,70.1,64.7,29.95,NNE,17,2.0,3.0,83,0.00,,---,0.00,VWS V14.01,2013-08-09 03:38:00,
2013-08-08 22:43:00,70.3,64.9,29.95,NNE,17,2.0,4.0,83,0.00,,---,0.00,VWS V14.01,2013-08-09 03:43:00,
2013-08-08 22:48:00,70.3,64.9,29.95,NNE,17,0.0,4.0,83,0.00,,---,0.00,VWS V14.01,2013-08-09 03:48:00,
2013-08-08 22:54:00,70.3,65.2,29.95,NNE,17,0.0,4.0,84,0.00,,---,0.00,VWS V14.01,2013-08-09 03:54:00,
2013-08-08 22:59:00,70.4,65.3,29.95,NNE,17,0.0,4.0,84,0.00,,---,0.00,VWS V14.01,2013-08-09 03:59:00,
2013-08-08 23:00:00,70.4,64.3,29.94,NNE,17,0.0,2.0,81,0.00,,---,0.00,VWS V14.01,2013-08-09 04:00:00,
2013-08-08 23:01:00,70.4,65.3,29.96,NNE,17,1.0,1.0,84,0.00,,---,0.00,VWS V14.01,2013-08-09 04:01:00,
2013-08-08 23:06:00,70.4,65.3,29.96,NNE,17,1.0,2.0,84,0.00,,---,0.00,VWS V14.01,2013-08-09 04:06:00,
2013-08-08 23:11:00,70.4,65.3,29.96,NNE,17,1.0,2.0,84,0.00,,---,0.00,VWS V14.01,2013-08-09 04:11:00,
2013-08-08 23:16:00,70.4,65.3,29.95,NNE,17,0.0,2.0,84,0.00,,---,0.00,VWS V14.01,2013-08-09 04:16:00,
2013-08-08 23:21:00,70.4,65.3,29.95,NNE,17,0.0,2.0,84,0.00,,---,0.00,VWS V14.01,2013-08-09 04:21:00,
2013-08-08 23:26:00,70.4,65.3,29.95,NNE,17,0.0,2.0,84,0.00,,---,0.00,VWS V14.01,2013-08-09 04:26:00,
2013-08-08 23:30:00,70.3,64.9,29.95,NNE,17,0.0,0.0,83,0.00,,---,0.00,VWS V14.01,2013-08-09 04:30:00,
2013-08-08 23:31:00,70.4,65.7,29.95,NNE,17,0.0,0.0,85,0.00,,---,0.00,VWS V14.01,2013-08-09 04:31:00,
2013-08-08 23:36:00,70.4,65.7,29.95,NNE,17,0.0,0.0,85,0.00,,---,0.00,VWS V14.01,2013-08-09 04:36:00,
2013-08-08 23:41:00,70.4,65.7,29.95,NNE,17,0.0,1.0,85,0.00,,---,0.00,VWS V14.01,2013-08-09 04:41:00,
2013-08-08 23:46:00,70.4,65.7,29.95,NNE,17,0.0,1.0,85,0.00,,---,0.00,VWS V14.01,2013-08-09 04:46:00,
2013-08-08 23:51:00,70.4,65.7,29.95,NNE,17,0.0,2.0,85,0.00,,---,0.00,VWS V14.01,2013-08-09 04:51:00,
2013-08-08 23:56:00,70.4,65.7,29.95,NNE,17,0.0,2.0,85,0.00,,---,0.00,VWS V14.01,2013-08-09 04:56:00,